Time;durP1;ratioP1;P1;durP2;ratioP2;P2;SDS_P1;SDS_P2;PMS_P1;PMS_P2;Temp;Humidity;BMP_temperature;BMP_pressure;BME280_temperature;BME280_humidity;BME280_pressure;Samples;Min_cycle;Max_cycle;Signal;HPM_P1;HPM_P2
2022/12/17 13:09:20;;;;;;;33.20;16.95;;;;;;;;;;10507679;28;20230;-76
2022/12/17 13:14:26;;;;;;;33.97;16.52;;;;;;;;;;10505187;28;20130;-76
2022/12/17 13:19:35;;;;;;;32.67;17.20;;;;;;;;;;10528009;28;20060;-77
2022/12/17 13:24:38;;;;;;;35.72;16.02;;;;;;;;;;10515552;28;20127;-76
2022/12/17 13:29:41;;;;;;;33.38;16.55;;;;;;;;;;10517589;28;20040;-77
2022/12/17 13:34:51;;;;;;;32.97;15.53;;;;;;;;;;10504409;28;20028;-76
2022/12/17 13:40:00;;;;;;;43.63;17.75;;;;;;;;;;10529276;28;20035;-77
2022/12/17 13:45:04;;;;;;;37.92;17.10;;;;;;;;;;10519227;28;20044;-76
2022/12/17 13:50:21;;;;;;;38.97;16.50;;;;;;;;;;10467070;28;20036;-76
2022/12/17 13:55:40;;;;;;;40.50;17.35;;;;;;;;;;10526344;28;20130;-78
2022/12/17 14:00:43;;;;;;;38.50;16.00;;;;;;;;;;10490256;28;20062;-77
2022/12/17 14:05:48;;;;;;;34.90;15.75;;;;;;;;;;10508900;28;20028;-77
2022/12/17 14:12:20;;;;;;;38.25;15.95;;;;;;;;;;10511807;28;20047;-76
2022/12/17 14:16:16;;;;;;;38.90;14.57;;;;;;;;;;10505570;28;20051;-77
2022/12/17 14:21:20;;;;;;;39.47;16.00;;;;;;;;;;10518758;28;20059;-76
2022/12/17 14:26:23;;;;;;;;;;;;;;;;;;10503814;28;20080;-76
2022/12/17 14:31:29;;;;;;;36.27;14.63;;;;;;;;;;10498532;28;20031;-75
2022/12/17 14:36:34;;;;;;;43.47;15.10;;;;;;;;;;10524294;28;20041;-76
2022/12/17 14:47:07;;;;;;;38.93;14.60;;;;;;;;;;10522119;28;20409;-76
2022/12/17 14:52:14;;;;;;;30.00;11.67;;;;;;;;;;10519257;28;20047;-76
2022/12/17 14:57:20;;;;;;;17.97;8.73;;;;;;;;;;10502480;28;20056;-76
2022/12/17 15:02:26;;;;;;;28.35;9.13;;;;;;;;;;10515173;28;20056;-77
2022/12/17 15:07:32;;;;;;;36.57;11.77;;;;;;;;;;10515917;28;20049;-77
2022/12/17 15:12:34;;;;;;;29.23;11.00;;;;;;;;;;10492304;28;20040;-76
2022/12/17 15:17:37;;;;;;;31.00;11.03;;;;;;;;;;10494390;28;20063;-76
2022/12/17 15:22:43;;;;;;;32.05;10.77;;;;;;;;;;10512459;28;20062;-77
2022/12/17 15:27:46;;;;;;;30.80;11.97;;;;;;;;;;10492068;28;20037;-76
2022/12/17 15:32:49;;;;;;;22.53;9.80;;;;;;;;;;10511123;28;20522;-76
2022/12/17 15:37:54;;;;;;;24.88;9.75;;;;;;;;;;10515302;28;20051;-78
2022/12/17 15:43:12;;;;;;;23.60;8.52;;;;;;;;;;10517850;28;20063;-76
2022/12/17 15:48:16;;;;;;;17.53;6.40;;;;;;;;;;10518726;28;20677;-77
2022/12/17 15:53:21;;;;;;;23.57;9.90;;;;;;;;;;10497684;28;20039;-77
2022/12/17 15:58:24;;;;;;;36.03;11.57;;;;;;;;;;10499587;28;20036;-77
2022/12/17 16:03:27;;;;;;;30.33;11.23;;;;;;;;;;10504262;28;20123;-76
2022/12/17 16:08:41;;;;;;;26.73;9.70;;;;;;;;;;10510037;28;20033;-77
2022/12/17 16:13:44;;;;;;;28.33;9.30;;;;;;;;;;10515957;28;20049;-76
2022/12/17 16:18:47;;;;;;;28.90;9.40;;;;;;;;;;10520110;28;20040;-76
2022/12/17 16:23:51;;;;;;;7.33;3.70;;;;;;;;;;10514454;28;20579;-78
2022/12/17 16:28:54;;;;;;;30.92;10.63;;;;;;;;;;10524350;28;20040;-76
2022/12/17 16:33:56;;;;;;;21.33;8.90;;;;;;;;;;10504507;28;20062;-76
2022/12/17 16:39:01;;;;;;;6.43;3.80;;;;;;;;;;10505322;28;20047;-77
2022/12/17 16:44:04;;;;;;;36.90;13.50;;;;;;;;;;10524314;28;20086;-77
2022/12/17 16:49:08;;;;;;;49.78;16.50;;;;;;;;;;10500699;28;20036;-76
2022/12/17 16:54:14;;;;;;;16.23;6.60;;;;;;;;;;10520386;28;20486;-76
2022/12/17 16:59:18;;;;;;;20.87;8.20;;;;;;;;;;10521148;28;20046;-77
2022/12/17 17:04:22;;;;;;;9.10;5.17;;;;;;;;;;10523449;28;20039;-76
2022/12/17 17:09:28;;;;;;;24.63;11.20;;;;;;;;;;10512672;28;20035;-76
2022/12/17 17:14:31;;;;;;;21.73;7.25;;;;;;;;;;10514420;28;20143;-75
2022/12/17 17:19:34;;;;;;;29.67;11.77;;;;;;;;;;10521195;28;20032;-77
2022/12/17 17:24:38;;;;;;;27.27;8.90;;;;;;;;;;10532147;28;20044;-77
2022/12/17 17:29:42;;;;;;;12.77;7.13;;;;;;;;;;10522977;28;20036;-76
2022/12/17 17:34:44;;;;;;;24.33;10.10;;;;;;;;;;10518107;28;20047;-77
2022/12/17 17:39:49;;;;;;;39.37;14.50;;;;;;;;;;10526555;28;20048;-76
2022/12/17 17:44:51;;;;;;;19.02;6.10;;;;;;;;;;10517666;28;20508;-76
2022/12/17 17:49:54;;;;;;;27.90;12.30;;;;;;;;;;10508765;28;20486;-76
2022/12/17 17:54:59;;;;;;;44.37;16.00;;;;;;;;;;10522789;28;20163;-76
2022/12/17 18:00:02;;;;;;;18.70;5.83;;;;;;;;;;10488533;28;20145;-76
2022/12/17 18:05:05;;;;;;;8.30;4.25;;;;;;;;;;10523703;28;20071;-75
2022/12/17 18:10:10;;;;;;;20.00;8.90;;;;;;;;;;10523851;28;20043;-78
2022/12/17 18:15:13;;;;;;;13.90;5.20;;;;;;;;;;10529357;28;20051;-75
2022/12/17 18:20:19;;;;;;;11.23;3.77;;;;;;;;;;10497676;28;20222;-77
2022/12/17 18:25:25;;;;;;;26.70;9.80;;;;;;;;;;10502370;28;20040;-79
2022/12/17 18:30:32;;;;;;;13.33;4.40;;;;;;;;;;10510930;28;20047;-77
2022/12/17 18:35:35;;;;;;;22.10;8.27;;;;;;;;;;10517147;28;20137;-76
2022/12/17 18:40:39;;;;;;;20.83;8.43;;;;;;;;;;10523761;28;20455;-76
2022/12/17 18:45:43;;;;;;;33.07;7.90;;;;;;;;;;10516263;28;20048;-75
2022/12/17 18:50:47;;;;;;;21.20;7.00;;;;;;;;;;10503297;28;20174;-76
2022/12/17 18:55:53;;;;;;;32.47;12.77;;;;;;;;;;10512000;28;20051;-76
2022/12/17 19:01:07;;;;;;;38.10;14.07;;;;;;;;;;10501227;28;20044;-76
2022/12/17 19:06:15;;;;;;;26.60;9.70;;;;;;;;;;10517510;28;20040;-76
2022/12/17 19:11:20;;;;;;;25.07;8.97;;;;;;;;;;10500521;28;20501;-77
2022/12/17 19:16:27;;;;;;;40.70;12.47;;;;;;;;;;10520278;28;20083;-77
2022/12/17 19:21:34;;;;;;;21.47;6.73;;;;;;;;;;10484195;28;20051;-76
2022/12/17 19:26:38;;;;;;;21.50;7.43;;;;;;;;;;10501442;28;20499;-77
2022/12/17 19:31:51;;;;;;;27.33;9.30;;;;;;;;;;10516298;28;20051;-75
2022/12/17 19:36:54;;;;;;;27.67;9.47;;;;;;;;;;10512850;28;20048;-75
2022/12/17 19:41:58;;;;;;;43.87;14.93;;;;;;;;;;10519007;28;20081;-76
2022/12/17 19:47:01;;;;;;;60.92;19.98;;;;;;;;;;10504099;28;20047;-76
2022/12/17 19:52:04;;;;;;;36.93;11.60;;;;;;;;;;10518422;28;20048;-76
2022/12/17 19:57:09;;;;;;;17.67;7.00;;;;;;;;;;10511929;28;20086;-76
2022/12/17 20:02:11;;;;;;;;;;;;;;;;;;10509409;28;20051;-77
2022/12/17 20:07:14;;;;;;;14.23;6.50;;;;;;;;;;10523899;28;19926;-77
2022/12/17 20:12:19;;;;;;;33.40;11.40;;;;;;;;;;10520765;28;20770;-77
2022/12/17 20:17:24;;;;;;;34.37;10.27;;;;;;;;;;10520471;28;20028;-76
2022/12/17 20:22:29;;;;;;;34.38;11.48;;;;;;;;;;10516636;28;20117;-76
2022/12/17 20:27:36;;;;;;;49.30;17.13;;;;;;;;;;10522625;28;20048;-76
2022/12/17 20:32:41;;;;;;;56.60;24.53;;;;;;;;;;10515937;28;20039;-77
2022/12/17 20:37:44;;;;;;;60.67;23.80;;;;;;;;;;10494233;28;20504;-76
2022/12/17 20:42:51;;;;;;;26.88;9.15;;;;;;;;;;10500635;28;20048;-76
2022/12/17 20:47:54;;;;;;;29.17;6.83;;;;;;;;;;10485572;28;20128;-77
2022/12/17 20:53:00;;;;;;;13.20;3.97;;;;;;;;;;10514601;28;20108;-77
2022/12/17 20:58:05;;;;;;;15.60;6.07;;;;;;;;;;10495480;28;20039;-76
2022/12/17 21:03:09;;;;;;;15.93;6.43;;;;;;;;;;10501300;28;20040;-75
2022/12/17 21:08:13;;;;;;;28.77;9.63;;;;;;;;;;10518714;28;20039;-78
2022/12/17 21:13:30;;;;;;;28.40;9.03;;;;;;;;;;10506777;28;20044;-77
2022/12/17 21:18:33;;;;;;;34.03;11.43;;;;;;;;;;10517262;28;20040;-77
2022/12/17 21:23:36;;;;;;;17.90;6.43;;;;;;;;;;10500316;28;20043;-79
2022/12/17 21:28:43;;;;;;;17.30;6.20;;;;;;;;;;10503030;28;20078;-77
2022/12/17 21:33:47;;;;;;;11.97;4.17;;;;;;;;;;10505626;28;20039;-76
2022/12/17 21:38:52;;;;;;;14.47;5.53;;;;;;;;;;10502964;28;20119;-76
2022/12/17 21:43:58;;;;;;;29.63;10.73;;;;;;;;;;10522088;28;20040;-76
2022/12/17 21:49:03;;;;;;;13.17;4.47;;;;;;;;;;10507692;28;20514;-77
2022/12/17 21:54:09;;;;;;;12.77;4.63;;;;;;;;;;10526906;28;20044;-76
2022/12/17 21:59:22;;;;;;;15.80;5.67;;;;;;;;;;10503092;28;20071;-76
2022/12/17 22:04:26;;;;;;;13.07;5.25;;;;;;;;;;10522633;28;20409;-76
2022/12/17 22:09:29;;;;;;;14.68;5.57;;;;;;;;;;10521242;28;20036;-76
2022/12/17 22:14:54;;;;;;;26.53;9.97;;;;;;;;;;10492651;28;20060;-76
2022/12/17 22:19:57;;;;;;;7.47;3.90;;;;;;;;;;10524879;28;20442;-77
2022/12/17 22:25:07;;;;;;;11.13;4.77;;;;;;;;;;10502239;28;20046;-77
2022/12/17 22:35:37;;;;;;;11.03;4.80;;;;;;;;;;10513130;28;20275;-78
2022/12/17 22:41:07;;;;;;;4.47;2.22;;;;;;;;;;10512650;28;20036;-77
2022/12/17 22:46:32;;;;;;;10.67;3.83;;;;;;;;;;10500509;28;20048;-76
2022/12/17 22:51:36;;;;;;;4.47;1.90;;;;;;;;;;10496070;28;20032;-75
2022/12/17 22:56:44;;;;;;;13.27;5.93;;;;;;;;;;10517318;28;20402;-75
2022/12/17 23:02:11;;;;;;;19.48;4.50;;;;;;;;;;10515485;28;20387;-77
2022/12/17 23:07:14;;;;;;;21.70;6.63;;;;;;;;;;10516589;28;20193;-77
2022/12/17 23:17:49;;;;;;;5.97;3.00;;;;;;;;;;10512864;28;20035;-77
2022/12/17 23:22:52;;;;;;;14.50;4.40;;;;;;;;;;10499685;28;20047;-76
2022/12/17 23:27:57;;;;;;;13.35;5.28;;;;;;;;;;10500528;28;20085;-76
2022/12/17 23:33:03;;;;;;;11.60;4.33;;;;;;;;;;10492085;28;20044;-76
2022/12/17 23:38:05;;;;;;;40.13;8.53;;;;;;;;;;10515965;28;20047;-77
2022/12/17 23:43:08;;;;;;;22.70;5.57;;;;;;;;;;10514525;28;20047;-78
2022/12/17 23:48:21;;;;;;;16.53;5.27;;;;;;;;;;10498950;28;20044;-77
2022/12/17 23:53:24;;;;;;;19.33;5.27;;;;;;;;;;10517218;28;20071;-76
2022/12/17 23:58:32;;;;;;;26.37;7.73;;;;;;;;;;10502685;28;20266;-76
